sensor_id;sensor_type;location;lat;lon;timestamp;P1;durP1;ratioP1;P2;durP2;ratioP2
72123;SDS011;63818;37.134;-8.548;2023-05-06T00:04:04;23.4;;;6.9;;
72123;SDS011;63818;37.134;-8.548;2023-05-06T00:08:52;22.7;;;6.4;;
72123;SDS011;63818;37.134;-8.548;2023-05-06T00:13:38;23.4;;;6.4;;
72123;SDS011;63818;37.134;-8.548;2023-05-06T00:18:25;25.7;;;6.6;;
72123;SDS011;63818;37.134;-8.548;2023-05-06T00:23:11;23.0;;;6.9;;
72123;SDS011;63818;37.134;-8.548;2023-05-06T00:27:57;20.9;;;6.9;;
72123;SDS011;63818;37.134;-8.548;2023-05-06T00:32:43;22.5;;;6.5;;
72123;SDS011;63818;37.134;-8.548;2023-05-06T00:37:29;21.1;;;6.4;;
72123;SDS011;63818;37.134;-8.548;2023-05-06T00:42:14;20.3;;;6.8;;
72123;SDS011;63818;37.134;-8.548;2023-05-06T00:47:01;19.2;;;6.4;;
72123;SDS011;63818;37.134;-8.548;2023-05-06T00:51:47;19.9;;;6.2;;
72123;SDS011;63818;37.134;-8.548;2023-05-06T00:56:33;20.0;;;6.4;;
72123;SDS011;63818;37.134;-8.548;2023-05-06T01:01:19;19.1;;;6.2;;
72123;SDS011;63818;37.134;-8.548;2023-05-06T01:06:10;22.3;;;6.2;;
72123;SDS011;63818;37.134;-8.548;2023-05-06T01:11:04;24.9;;;6.6;;
72123;SDS011;63818;37.134;-8.548;2023-05-06T01:15:54;21.9;;;6.5;;
72123;SDS011;63818;37.134;-8.548;2023-05-06T01:20:43;21.3;;;6.4;;
72123;SDS011;63818;37.134;-8.548;2023-05-06T01:25:32;21.4;;;6.5;;
72123;SDS011;63818;37.134;-8.548;2023-05-06T01:30:19;21.6;;;6.2;;
72123;SDS011;63818;37.134;-8.548;2023-05-06T01:35:11;22.6;;;6.2;;
72123;SDS011;63818;37.134;-8.548;2023-05-06T01:40:03;19.5;;;6.1;;
72123;SDS011;63818;37.134;-8.548;2023-05-06T01:44:49;16.6;;;5.9;;
72123;SDS011;63818;37.134;-8.548;2023-05-06T01:49:37;18.3;;;6.6;;
72123;SDS011;63818;37.134;-8.548;2023-05-06T01:54:24;22.1;;;6.8;;
72123;SDS011;63818;37.134;-8.548;2023-05-06T01:59:10;20.6;;;6.0;;
72123;SDS011;63818;37.134;-8.548;2023-05-06T02:03:56;21.1;;;6.3;;
72123;SDS011;63818;37.134;-8.548;2023-05-06T02:08:42;23.8;;;6.7;;
72123;SDS011;63818;37.134;-8.548;2023-05-06T02:13:29;18.6;;;6.0;;
72123;SDS011;63818;37.134;-8.548;2023-05-06T02:18:15;17.6;;;5.9;;
72123;SDS011;63818;37.134;-8.548;2023-05-06T02:23:01;22.7;;;6.3;;
72123;SDS011;63818;37.134;-8.548;2023-05-06T02:27:47;21.1;;;6.3;;
72123;SDS011;63818;37.134;-8.548;2023-05-06T02:32:33;17.9;;;6.2;;
72123;SDS011;63818;37.134;-8.548;2023-05-06T02:37:19;19.8;;;6.0;;
72123;SDS011;63818;37.134;-8.548;2023-05-06T02:42:06;22.6;;;6.3;;
72123;SDS011;63818;37.134;-8.548;2023-05-06T02:46:52;20.4;;;6.3;;
72123;SDS011;63818;37.134;-8.548;2023-05-06T02:51:39;23.4;;;6.2;;
72123;SDS011;63818;37.134;-8.548;2023-05-06T02:56:25;24.3;;;6.2;;
72123;SDS011;63818;37.134;-8.548;2023-05-06T03:01:11;20.1;;;6.1;;
72123;SDS011;63818;37.134;-8.548;2023-05-06T03:05:57;19.9;;;6.4;;
72123;SDS011;63818;37.134;-8.548;2023-05-06T03:10:46;19.5;;;6.4;;
72123;SDS011;63818;37.134;-8.548;2023-05-06T03:15:34;19.4;;;6.4;;
72123;SDS011;63818;37.134;-8.548;2023-05-06T03:20:20;21.8;;;6.2;;
72123;SDS011;63818;37.134;-8.548;2023-05-06T03:25:07;22.1;;;5.8;;
72123;SDS011;63818;37.134;-8.548;2023-05-06T03:29:53;19.4;;;6.1;;
72123;SDS011;63818;37.134;-8.548;2023-05-06T03:34:39;22.6;;;6.4;;
72123;SDS011;63818;37.134;-8.548;2023-05-06T03:39:25;23.0;;;6.6;;
72123;SDS011;63818;37.134;-8.548;2023-05-06T03:44:13;18.0;;;6.4;;
72123;SDS011;63818;37.134;-8.548;2023-05-06T03:48:59;16.3;;;6.0;;
72123;SDS011;63818;37.134;-8.548;2023-05-06T03:53:45;16.2;;;5.9;;
72123;SDS011;63818;37.134;-8.548;2023-05-06T03:58:32;17.0;;;5.7;;
72123;SDS011;63818;37.134;-8.548;2023-05-06T04:03:17;18.7;;;5.9;;
72123;SDS011;63818;37.134;-8.548;2023-05-06T04:08:03;17.9;;;6.1;;
72123;SDS011;63818;37.134;-8.548;2023-05-06T04:12:50;18.7;;;6.1;;
72123;SDS011;63818;37.134;-8.548;2023-05-06T04:17:36;19.4;;;6.2;;
72123;SDS011;63818;37.134;-8.548;2023-05-06T04:22:21;19.1;;;6.2;;
72123;SDS011;63818;37.134;-8.548;2023-05-06T04:27:08;19.7;;;6.1;;
72123;SDS011;63818;37.134;-8.548;2023-05-06T04:31:56;20.7;;;5.7;;
72123;SDS011;63818;37.134;-8.548;2023-05-06T04:36:42;19.0;;;5.8;;
72123;SDS011;63818;37.134;-8.548;2023-05-06T04:41:28;17.1;;;6.0;;
72123;SDS011;63818;37.134;-8.548;2023-05-06T04:46:14;19.4;;;5.9;;
72123;SDS011;63818;37.134;-8.548;2023-05-06T04:51:00;19.1;;;5.8;;
72123;SDS011;63818;37.134;-8.548;2023-05-06T04:55:46;18.3;;;6.2;;
72123;SDS011;63818;37.134;-8.548;2023-05-06T05:00:32;18.8;;;5.9;;
72123;SDS011;63818;37.134;-8.548;2023-05-06T05:05:22;16.1;;;5.7;;
72123;SDS011;63818;37.134;-8.548;2023-05-06T05:10:09;16.5;;;6.1;;
72123;SDS011;63818;37.134;-8.548;2023-05-06T05:14:55;19.7;;;6.1;;
72123;SDS011;63818;37.134;-8.548;2023-05-06T05:19:41;24.0;;;6.4;;
72123;SDS011;63818;37.134;-8.548;2023-05-06T05:24:27;21.6;;;6.9;;
72123;SDS011;63818;37.134;-8.548;2023-05-06T05:29:13;16.2;;;6.9;;
72123;SDS011;63818;37.134;-8.548;2023-05-06T05:34:00;16.2;;;6.6;;
72123;SDS011;63818;37.134;-8.548;2023-05-06T05:38:46;16.0;;;6.1;;
72123;SDS011;63818;37.134;-8.548;2023-05-06T05:43:32;16.9;;;6.1;;
72123;SDS011;63818;37.134;-8.548;2023-05-06T05:48:18;21.1;;;6.6;;
72123;SDS011;63818;37.134;-8.548;2023-05-06T05:53:04;25.5;;;6.6;;
72123;SDS011;63818;37.134;-8.548;2023-05-06T05:57:50;22.5;;;6.6;;
72123;SDS011;63818;37.134;-8.548;2023-05-06T06:02:39;16.1;;;6.5;;
72123;SDS011;63818;37.134;-8.548;2023-05-06T06:07:25;15.6;;;6.4;;
72123;SDS011;63818;37.134;-8.548;2023-05-06T06:12:11;18.1;;;6.9;;
72123;SDS011;63818;37.134;-8.548;2023-05-06T06:16:57;20.1;;;7.2;;
72123;SDS011;63818;37.134;-8.548;2023-05-06T06:21:43;18.1;;;7.0;;
72123;SDS011;63818;37.134;-8.548;2023-05-06T06:26:31;17.3;;;7.1;;
72123;SDS011;63818;37.134;-8.548;2023-05-06T06:31:17;21.0;;;7.2;;
72123;SDS011;63818;37.134;-8.548;2023-05-06T06:36:04;19.2;;;6.9;;
72123;SDS011;63818;37.134;-8.548;2023-05-06T06:40:50;15.9;;;7.0;;
72123;SDS011;63818;37.134;-8.548;2023-05-06T06:45:36;19.3;;;7.1;;
72123;SDS011;63818;37.134;-8.548;2023-05-06T06:50:22;18.1;;;7.3;;
72123;SDS011;63818;37.134;-8.548;2023-05-06T06:55:09;17.5;;;7.5;;
72123;SDS011;63818;37.134;-8.548;2023-05-06T06:59:55;20.2;;;7.6;;
72123;SDS011;63818;37.134;-8.548;2023-05-06T07:04:41;22.1;;;7.2;;
72123;SDS011;63818;37.134;-8.548;2023-05-06T07:09:27;23.6;;;6.7;;
72123;SDS011;63818;37.134;-8.548;2023-05-06T07:14:13;21.8;;;6.8;;
72123;SDS011;63818;37.134;-8.548;2023-05-06T07:19:00;22.9;;;6.8;;
72123;SDS011;63818;37.134;-8.548;2023-05-06T07:23:46;20.1;;;6.8;;
72123;SDS011;63818;37.134;-8.548;2023-05-06T07:28:31;20.6;;;7.2;;
72123;SDS011;63818;37.134;-8.548;2023-05-06T07:33:17;23.8;;;7.4;;
72123;SDS011;63818;37.134;-8.548;2023-05-06T07:38:03;24.0;;;7.2;;
72123;SDS011;63818;37.134;-8.548;2023-05-06T07:42:49;22.2;;;6.9;;
72123;SDS011;63818;37.134;-8.548;2023-05-06T07:47:35;18.6;;;6.2;;
72123;SDS011;63818;37.134;-8.548;2023-05-06T07:52:22;18.7;;;5.8;;
72123;SDS011;63818;37.134;-8.548;2023-05-06T07:57:08;16.1;;;5.9;;
72123;SDS011;63818;37.134;-8.548;2023-05-06T08:01:54;13.5;;;5.7;;
72123;SDS011;63818;37.134;-8.548;2023-05-06T08:06:40;14.9;;;5.7;;
72123;SDS011;63818;37.134;-8.548;2023-05-06T08:11:26;17.3;;;5.9;;
72123;SDS011;63818;37.134;-8.548;2023-05-06T08:16:12;16.3;;;5.8;;
72123;SDS011;63818;37.134;-8.548;2023-05-06T08:20:58;13.1;;;5.7;;
72123;SDS011;63818;37.134;-8.548;2023-05-06T08:25:44;12.4;;;5.7;;
72123;SDS011;63818;37.134;-8.548;2023-05-06T08:30:30;20.6;;;5.6;;
72123;SDS011;63818;37.134;-8.548;2023-05-06T08:35:16;13.1;;;5.2;;
72123;SDS011;63818;37.134;-8.548;2023-05-06T08:40:02;10.5;;;4.9;;
72123;SDS011;63818;37.134;-8.548;2023-05-06T08:44:49;10.5;;;4.9;;
72123;SDS011;63818;37.134;-8.548;2023-05-06T08:49:36;11.2;;;4.9;;
72123;SDS011;63818;37.134;-8.548;2023-05-06T08:54:23;14.4;;;4.9;;
72123;SDS011;63818;37.134;-8.548;2023-05-06T08:59:10;16.7;;;5.2;;
72123;SDS011;63818;37.134;-8.548;2023-05-06T09:03:58;12.2;;;4.9;;
72123;SDS011;63818;37.134;-8.548;2023-05-06T09:08:46;8.4;;;4.4;;
72123;SDS011;63818;37.134;-8.548;2023-05-06T09:13:32;10.1;;;4.6;;
72123;SDS011;63818;37.134;-8.548;2023-05-06T09:18:18;12.2;;;5.1;;
72123;SDS011;63818;37.134;-8.548;2023-05-06T09:23:05;11.9;;;5.1;;
72123;SDS011;63818;37.134;-8.548;2023-05-06T09:28:04;10.4;;;4.8;;
72123;SDS011;63818;37.134;-8.548;2023-05-06T09:32:51;11.0;;;5.2;;
72123;SDS011;63818;37.134;-8.548;2023-05-06T09:37:37;12.4;;;5.3;;
72123;SDS011;63818;37.134;-8.548;2023-05-06T09:42:25;10.6;;;4.8;;
72123;SDS011;63818;37.134;-8.548;2023-05-06T09:47:13;8.7;;;4.6;;
72123;SDS011;63818;37.134;-8.548;2023-05-06T09:52:00;9.3;;;4.7;;
72123;SDS011;63818;37.134;-8.548;2023-05-06T09:56:51;8.8;;;4.6;;
72123;SDS011;63818;37.134;-8.548;2023-05-06T10:01:38;8.4;;;4.3;;
72123;SDS011;63818;37.134;-8.548;2023-05-06T10:06:25;10.0;;;4.4;;
72123;SDS011;63818;37.134;-8.548;2023-05-06T10:11:13;11.3;;;4.7;;
72123;SDS011;63818;37.134;-8.548;2023-05-06T10:16:00;11.5;;;4.7;;
72123;SDS011;63818;37.134;-8.548;2023-05-06T10:20:47;10.8;;;4.8;;
72123;SDS011;63818;37.134;-8.548;2023-05-06T10:25:35;10.1;;;4.8;;
72123;SDS011;63818;37.134;-8.548;2023-05-06T10:30:23;9.8;;;4.5;;
72123;SDS011;63818;37.134;-8.548;2023-05-06T10:35:14;10.7;;;4.8;;
72123;SDS011;63818;37.134;-8.548;2023-05-06T10:40:07;11.8;;;5.0;;
72123;SDS011;63818;37.134;-8.548;2023-05-06T10:45:02;10.6;;;4.8;;
72123;SDS011;63818;37.134;-8.548;2023-05-06T10:50:01;11.0;;;4.8;;
72123;SDS011;63818;37.134;-8.548;2023-05-06T10:55:23;10.9;;;4.7;;
72123;SDS011;63818;37.134;-8.548;2023-05-06T11:00:15;8.5;;;4.6;;
72123;SDS011;63818;37.134;-8.548;2023-05-06T11:05:04;10.1;;;4.5;;
72123;SDS011;63818;37.134;-8.548;2023-05-06T11:09:54;12.0;;;4.7;;
72123;SDS011;63818;37.134;-8.548;2023-05-06T11:14:42;9.4;;;4.6;;
72123;SDS011;63818;37.134;-8.548;2023-05-06T11:19:29;7.3;;;4.6;;
72123;SDS011;63818;37.134;-8.548;2023-05-06T11:24:22;10.5;;;4.9;;
72123;SDS011;63818;37.134;-8.548;2023-05-06T11:29:09;13.2;;;4.8;;
72123;SDS011;63818;37.134;-8.548;2023-05-06T11:33:56;14.2;;;4.8;;
72123;SDS011;63818;37.134;-8.548;2023-05-06T11:38:47;12.6;;;4.8;;
72123;SDS011;63818;37.134;-8.548;2023-05-06T11:43:35;8.7;;;4.7;;
72123;SDS011;63818;37.134;-8.548;2023-05-06T11:48:22;9.1;;;4.7;;
72123;SDS011;63818;37.134;-8.548;2023-05-06T11:53:08;11.3;;;4.7;;
72123;SDS011;63818;37.134;-8.548;2023-05-06T11:57:55;10.4;;;4.6;;
72123;SDS011;63818;37.134;-8.548;2023-05-06T12:02:42;7.2;;;4.4;;
72123;SDS011;63818;37.134;-8.548;2023-05-06T12:07:29;6.9;;;4.3;;
72123;SDS011;63818;37.134;-8.548;2023-05-06T12:12:16;8.4;;;4.5;;
72123;SDS011;63818;37.134;-8.548;2023-05-06T12:17:05;7.1;;;4.5;;
72123;SDS011;63818;37.134;-8.548;2023-05-06T12:21:52;7.0;;;4.4;;
72123;SDS011;63818;37.134;-8.548;2023-05-06T12:26:46;7.9;;;4.4;;
72123;SDS011;63818;37.134;-8.548;2023-05-06T12:31:35;7.8;;;4.2;;
72123;SDS011;63818;37.134;-8.548;2023-05-06T12:36:22;9.3;;;4.8;;
72123;SDS011;63818;37.134;-8.548;2023-05-06T12:41:08;9.7;;;4.9;;
72123;SDS011;63818;37.134;-8.548;2023-05-06T12:46:03;9.0;;;4.7;;
72123;SDS011;63818;37.134;-8.548;2023-05-06T12:50:51;9.2;;;4.6;;
72123;SDS011;63818;37.134;-8.548;2023-05-06T12:55:38;9.4;;;4.8;;
72123;SDS011;63818;37.134;-8.548;2023-05-06T13:00:26;7.9;;;4.7;;
72123;SDS011;63818;37.134;-8.548;2023-05-06T13:05:12;7.9;;;4.2;;
72123;SDS011;63818;37.134;-8.548;2023-05-06T13:10:00;8.5;;;4.3;;
72123;SDS011;63818;37.134;-8.548;2023-05-06T13:14:50;8.3;;;4.5;;
72123;SDS011;63818;37.134;-8.548;2023-05-06T13:19:38;9.8;;;4.7;;
72123;SDS011;63818;37.134;-8.548;2023-05-06T13:24:27;9.4;;;4.6;;
72123;SDS011;63818;37.134;-8.548;2023-05-06T13:29:14;8.6;;;4.5;;
72123;SDS011;63818;37.134;-8.548;2023-05-06T13:34:03;7.9;;;4.4;;
72123;SDS011;63818;37.134;-8.548;2023-05-06T13:38:49;6.7;;;4.3;;
72123;SDS011;63818;37.134;-8.548;2023-05-06T13:43:36;6.6;;;4.5;;
72123;SDS011;63818;37.134;-8.548;2023-05-06T13:48:23;7.9;;;4.8;;
72123;SDS011;63818;37.134;-8.548;2023-05-06T13:53:10;8.6;;;4.8;;
72123;SDS011;63818;37.134;-8.548;2023-05-06T13:57:59;8.4;;;4.6;;
72123;SDS011;63818;37.134;-8.548;2023-05-06T14:02:45;7.8;;;4.4;;
72123;SDS011;63818;37.134;-8.548;2023-05-06T14:07:32;9.4;;;4.3;;
72123;SDS011;63818;37.134;-8.548;2023-05-06T14:12:18;11.4;;;4.7;;
72123;SDS011;63818;37.134;-8.548;2023-05-06T14:17:05;9.4;;;4.7;;
72123;SDS011;63818;37.134;-8.548;2023-05-06T14:21:52;7.7;;;4.5;;
72123;SDS011;63818;37.134;-8.548;2023-05-06T14:26:39;8.9;;;4.5;;
72123;SDS011;63818;37.134;-8.548;2023-05-06T14:31:26;11.4;;;4.5;;
72123;SDS011;63818;37.134;-8.548;2023-05-06T14:36:14;12.1;;;4.5;;
72123;SDS011;63818;37.134;-8.548;2023-05-06T14:41:02;11.6;;;4.6;;
72123;SDS011;63818;37.134;-8.548;2023-05-06T14:45:49;12.8;;;4.6;;
72123;SDS011;63818;37.134;-8.548;2023-05-06T14:50:36;12.6;;;4.5;;
72123;SDS011;63818;37.134;-8.548;2023-05-06T14:55:24;9.8;;;4.5;;
72123;SDS011;63818;37.134;-8.548;2023-05-06T15:00:11;8.2;;;4.7;;
72123;SDS011;63818;37.134;-8.548;2023-05-06T15:04:59;8.8;;;4.7;;
72123;SDS011;63818;37.134;-8.548;2023-05-06T15:09:46;10.3;;;4.7;;
72123;SDS011;63818;37.134;-8.548;2023-05-06T15:14:32;10.2;;;4.8;;
72123;SDS011;63818;37.134;-8.548;2023-05-06T15:19:19;11.3;;;4.6;;
72123;SDS011;63818;37.134;-8.548;2023-05-06T15:24:06;10.8;;;4.6;;
72123;SDS011;63818;37.134;-8.548;2023-05-06T15:28:53;8.3;;;4.5;;
72123;SDS011;63818;37.134;-8.548;2023-05-06T15:33:39;8.8;;;4.6;;
72123;SDS011;63818;37.134;-8.548;2023-05-06T15:38:26;8.6;;;4.6;;
72123;SDS011;63818;37.134;-8.548;2023-05-06T15:43:13;8.4;;;4.5;;
72123;SDS011;63818;37.134;-8.548;2023-05-06T15:47:59;9.4;;;4.8;;
72123;SDS011;63818;37.134;-8.548;2023-05-06T15:52:46;12.0;;;5.1;;
72123;SDS011;63818;37.134;-8.548;2023-05-06T15:57:33;15.6;;;5.2;;
72123;SDS011;63818;37.134;-8.548;2023-05-06T16:02:20;14.2;;;5.2;;
72123;SDS011;63818;37.134;-8.548;2023-05-06T16:07:06;11.1;;;5.2;;
72123;SDS011;63818;37.134;-8.548;2023-05-06T16:11:53;12.0;;;5.6;;
72123;SDS011;63818;37.134;-8.548;2023-05-06T16:16:40;13.0;;;5.7;;
72123;SDS011;63818;37.134;-8.548;2023-05-06T16:21:27;11.6;;;5.4;;
72123;SDS011;63818;37.134;-8.548;2023-05-06T16:26:13;11.3;;;5.3;;
72123;SDS011;63818;37.134;-8.548;2023-05-06T16:31:02;12.6;;;5.1;;
72123;SDS011;63818;37.134;-8.548;2023-05-06T16:35:49;13.3;;;4.9;;
72123;SDS011;63818;37.134;-8.548;2023-05-06T16:40:41;14.4;;;5.1;;
72123;SDS011;63818;37.134;-8.548;2023-05-06T16:45:32;17.4;;;5.3;;
72123;SDS011;63818;37.134;-8.548;2023-05-06T16:50:19;18.7;;;5.5;;
72123;SDS011;63818;37.134;-8.548;2023-05-06T16:55:06;16.8;;;5.5;;
72123;SDS011;63818;37.134;-8.548;2023-05-06T16:59:53;15.1;;;5.3;;
72123;SDS011;63818;37.134;-8.548;2023-05-06T17:04:40;13.5;;;5.5;;
72123;SDS011;63818;37.134;-8.548;2023-05-06T17:09:27;13.6;;;6.0;;
72123;SDS011;63818;37.134;-8.548;2023-05-06T17:14:13;12.4;;;6.0;;
72123;SDS011;63818;37.134;-8.548;2023-05-06T17:19:03;13.2;;;5.8;;
72123;SDS011;63818;37.134;-8.548;2023-05-06T17:23:49;16.5;;;5.9;;
72123;SDS011;63818;37.134;-8.548;2023-05-06T17:28:36;17.2;;;5.8;;
72123;SDS011;63818;37.134;-8.548;2023-05-06T17:33:23;18.1;;;6.0;;
72123;SDS011;63818;37.134;-8.548;2023-05-06T17:38:11;19.8;;;6.2;;
72123;SDS011;63818;37.134;-8.548;2023-05-06T17:42:58;19.1;;;6.3;;
72123;SDS011;63818;37.134;-8.548;2023-05-06T17:47:45;20.4;;;6.8;;
72123;SDS011;63818;37.134;-8.548;2023-05-06T17:52:32;20.8;;;6.8;;
72123;SDS011;63818;37.134;-8.548;2023-05-06T17:57:18;18.9;;;6.2;;
72123;SDS011;63818;37.134;-8.548;2023-05-06T18:02:05;16.8;;;6.0;;
72123;SDS011;63818;37.134;-8.548;2023-05-06T18:06:54;16.8;;;6.2;;
72123;SDS011;63818;37.134;-8.548;2023-05-06T18:11:42;18.8;;;6.4;;
72123;SDS011;63818;37.134;-8.548;2023-05-06T18:16:29;20.1;;;6.4;;
72123;SDS011;63818;37.134;-8.548;2023-05-06T18:21:15;19.7;;;6.4;;
72123;SDS011;63818;37.134;-8.548;2023-05-06T18:26:04;18.3;;;6.3;;
72123;SDS011;63818;37.134;-8.548;2023-05-06T18:30:51;19.3;;;6.2;;
72123;SDS011;63818;37.134;-8.548;2023-05-06T18:35:37;18.7;;;6.3;;
72123;SDS011;63818;37.134;-8.548;2023-05-06T18:40:24;20.6;;;6.8;;
72123;SDS011;63818;37.134;-8.548;2023-05-06T18:45:10;20.6;;;6.7;;
72123;SDS011;63818;37.134;-8.548;2023-05-06T18:49:57;19.8;;;6.4;;
72123;SDS011;63818;37.134;-8.548;2023-05-06T18:54:43;20.8;;;6.6;;
72123;SDS011;63818;37.134;-8.548;2023-05-06T18:59:30;21.1;;;6.6;;
72123;SDS011;63818;37.134;-8.548;2023-05-06T19:04:16;21.8;;;6.6;;
72123;SDS011;63818;37.134;-8.548;2023-05-06T19:09:04;21.0;;;6.9;;
72123;SDS011;63818;37.134;-8.548;2023-05-06T19:13:51;21.3;;;6.9;;
72123;SDS011;63818;37.134;-8.548;2023-05-06T19:18:37;21.6;;;7.4;;
72123;SDS011;63818;37.134;-8.548;2023-05-06T19:23:23;20.5;;;7.7;;
72123;SDS011;63818;37.134;-8.548;2023-05-06T19:28:09;22.0;;;7.4;;
72123;SDS011;63818;37.134;-8.548;2023-05-06T19:32:56;22.8;;;7.2;;
72123;SDS011;63818;37.134;-8.548;2023-05-06T19:37:43;21.0;;;7.0;;
72123;SDS011;63818;37.134;-8.548;2023-05-06T19:42:29;21.9;;;7.1;;
72123;SDS011;63818;37.134;-8.548;2023-05-06T19:47:16;18.3;;;6.9;;
72123;SDS011;63818;37.134;-8.548;2023-05-06T19:52:02;17.9;;;6.9;;
72123;SDS011;63818;37.134;-8.548;2023-05-06T19:56:48;24.2;;;7.4;;
72123;SDS011;63818;37.134;-8.548;2023-05-06T20:01:35;23.8;;;7.3;;
72123;SDS011;63818;37.134;-8.548;2023-05-06T20:06:22;20.1;;;7.1;;
72123;SDS011;63818;37.134;-8.548;2023-05-06T20:11:09;22.0;;;7.4;;
72123;SDS011;63818;37.134;-8.548;2023-05-06T20:15:55;23.4;;;7.4;;
72123;SDS011;63818;37.134;-8.548;2023-05-06T20:20:42;24.3;;;7.1;;
72123;SDS011;63818;37.134;-8.548;2023-05-06T20:25:29;28.7;;;7.6;;
72123;SDS011;63818;37.134;-8.548;2023-05-06T20:30:16;27.1;;;7.7;;
72123;SDS011;63818;37.134;-8.548;2023-05-06T20:35:06;21.7;;;7.1;;
72123;SDS011;63818;37.134;-8.548;2023-05-06T20:39:54;26.5;;;7.6;;
72123;SDS011;63818;37.134;-8.548;2023-05-06T20:44:40;16.7;;;7.4;;
72123;SDS011;63818;37.134;-8.548;2023-05-06T20:49:27;18.9;;;7.3;;
72123;SDS011;63818;37.134;-8.548;2023-05-06T20:54:14;28.8;;;7.7;;
72123;SDS011;63818;37.134;-8.548;2023-05-06T20:59:01;32.5;;;7.6;;
72123;SDS011;63818;37.134;-8.548;2023-05-06T21:03:48;25.9;;;7.5;;
72123;SDS011;63818;37.134;-8.548;2023-05-06T21:08:35;23.4;;;7.5;;
72123;SDS011;63818;37.134;-8.548;2023-05-06T21:13:22;24.7;;;7.5;;
72123;SDS011;63818;37.134;-8.548;2023-05-06T21:18:09;24.7;;;7.7;;
72123;SDS011;63818;37.134;-8.548;2023-05-06T21:22:56;28.5;;;8.2;;
72123;SDS011;63818;37.134;-8.548;2023-05-06T21:27:43;30.4;;;8.2;;
72123;SDS011;63818;37.134;-8.548;2023-05-06T21:32:29;26.0;;;8.0;;
72123;SDS011;63818;37.134;-8.548;2023-05-06T21:37:16;25.0;;;8.1;;
72123;SDS011;63818;37.134;-8.548;2023-05-06T21:42:03;27.5;;;8.0;;
72123;SDS011;63818;37.134;-8.548;2023-05-06T21:46:50;27.2;;;7.5;;
72123;SDS011;63818;37.134;-8.548;2023-05-06T21:51:37;25.7;;;7.6;;
72123;SDS011;63818;37.134;-8.548;2023-05-06T21:56:24;26.0;;;7.7;;
72123;SDS011;63818;37.134;-8.548;2023-05-06T22:01:12;28.4;;;8.2;;
72123;SDS011;63818;37.134;-8.548;2023-05-06T22:05:59;27.1;;;8.4;;
72123;SDS011;63818;37.134;-8.548;2023-05-06T22:10:47;25.4;;;7.8;;
72123;SDS011;63818;37.134;-8.548;2023-05-06T22:15:34;30.0;;;8.1;;
72123;SDS011;63818;37.134;-8.548;2023-05-06T22:20:26;26.6;;;8.2;;
72123;SDS011;63818;37.134;-8.548;2023-05-06T22:25:15;23.1;;;7.5;;
72123;SDS011;63818;37.134;-8.548;2023-05-06T22:30:02;25.5;;;7.5;;
72123;SDS011;63818;37.134;-8.548;2023-05-06T22:34:49;25.4;;;7.6;;
72123;SDS011;63818;37.134;-8.548;2023-05-06T22:39:36;21.6;;;7.6;;
72123;SDS011;63818;37.134;-8.548;2023-05-06T22:44:22;20.2;;;7.2;;
72123;SDS011;63818;37.134;-8.548;2023-05-06T22:49:09;26.4;;;6.9;;
72123;SDS011;63818;37.134;-8.548;2023-05-06T22:53:56;27.6;;;7.2;;
72123;SDS011;63818;37.134;-8.548;2023-05-06T22:58:42;21.1;;;7.1;;
72123;SDS011;63818;37.134;-8.548;2023-05-06T23:03:29;22.0;;;7.5;;
72123;SDS011;63818;37.134;-8.548;2023-05-06T23:08:18;25.9;;;7.3;;
72123;SDS011;63818;37.134;-8.548;2023-05-06T23:13:05;23.6;;;7.2;;
72123;SDS011;63818;37.134;-8.548;2023-05-06T23:17:52;24.8;;;7.9;;
72123;SDS011;63818;37.134;-8.548;2023-05-06T23:22:39;24.6;;;7.3;;
72123;SDS011;63818;37.134;-8.548;2023-05-06T23:27:25;21.8;;;7.0;;
72123;SDS011;63818;37.134;-8.548;2023-05-06T23:32:11;24.9;;;7.3;;
72123;SDS011;63818;37.134;-8.548;2023-05-06T23:36:58;24.9;;;7.3;;
72123;SDS011;63818;37.134;-8.548;2023-05-06T23:41:44;23.5;;;7.6;;
72123;SDS011;63818;37.134;-8.548;2023-05-06T23:46:31;25.4;;;7.9;;
72123;SDS011;63818;37.134;-8.548;2023-05-06T23:51:17;25.2;;;7.9;;
72123;SDS011;63818;37.134;-8.548;2023-05-06T23:56:04;24.0;;;7.4;;
